createdAt,value
2023-04-14T00:00:49.224Z,80.32
2023-04-14T00:01:49.250Z,80.42
2023-04-14T00:02:49.430Z,80.42
2023-04-14T00:03:49.295Z,80.52
2023-04-14T00:04:49.236Z,80.42
2023-04-14T00:05:49.194Z,80.42
2023-04-14T00:06:49.158Z,80.42
2023-04-14T00:07:49.143Z,80.42
2023-04-14T00:08:49.125Z,80.32
2023-04-14T00:09:49.130Z,80.21
2023-04-14T00:10:49.116Z,80.00
2023-04-14T00:11:49.116Z,79.59
2023-04-14T00:12:49.145Z,79.08
2023-04-14T00:13:49.067Z,78.77
2023-04-14T00:14:49.064Z,78.66
2023-04-14T00:15:49.044Z,78.66
2023-04-14T00:16:49.115Z,78.77
2023-04-14T00:17:49.137Z,78.87
2023-04-14T00:18:49.075Z,79.01
2023-04-14T00:19:49.002Z,79.01
2023-04-14T00:20:49.002Z,79.11
2023-04-14T00:21:48.987Z,79.22
2023-04-14T00:22:49.029Z,79.32
2023-04-14T00:23:48.964Z,79.42
2023-04-14T00:24:48.965Z,79.66
2023-04-14T00:25:48.946Z,79.77
2023-04-14T00:26:48.941Z,79.87
2023-04-14T00:27:48.922Z,79.97
2023-04-14T00:28:48.957Z,80.18
2023-04-14T00:29:48.895Z,80.60
2023-04-14T00:30:48.942Z,81.11
2023-04-14T00:31:48.878Z,81.63
2023-04-14T00:32:48.908Z,81.73
2023-04-14T00:33:48.884Z,81.70
2023-04-14T00:34:48.844Z,81.90
2023-04-14T00:35:48.833Z,82.00
2023-04-14T00:36:48.984Z,82.00
2023-04-14T00:37:48.823Z,82.00
2023-04-14T00:38:48.814Z,81.90
2023-04-14T00:39:48.786Z,81.59
2023-04-14T00:40:48.791Z,81.18
2023-04-14T00:41:48.772Z,80.76
2023-04-14T00:42:48.813Z,80.56
2023-04-14T00:43:48.793Z,80.46
2023-04-14T00:44:48.758Z,80.56
2023-04-14T00:45:48.731Z,80.87
2023-04-14T00:46:48.759Z,81.18
2023-04-14T00:47:48.778Z,81.18
2023-04-14T00:48:48.734Z,81.07
2023-04-14T00:49:48.830Z,81.07
2023-04-14T00:50:48.684Z,81.18
2023-04-14T00:51:48.693Z,81.28
2023-04-14T00:52:48.660Z,81.49
2023-04-14T00:53:48.644Z,81.59
2023-04-14T00:54:48.632Z,81.49
2023-04-14T00:55:48.629Z,81.38
2023-04-14T00:56:48.621Z,81.38
2023-04-14T00:57:48.645Z,81.28
2023-04-14T00:58:48.594Z,81.38
2023-04-14T00:59:48.578Z,81.38
2023-04-14T01:00:48.642Z,81.28
2023-04-14T01:01:48.620Z,81.07
2023-04-14T01:02:48.721Z,80.87
2023-04-14T01:03:48.695Z,80.70
2023-04-14T01:04:54.155Z,80.49
2023-04-14T01:05:49.629Z,80.49
2023-04-14T01:06:48.518Z,80.49
2023-04-14T01:07:48.488Z,80.60
2023-04-14T01:08:48.525Z,80.74
2023-04-14T01:09:48.500Z,80.84
2023-04-14T01:10:48.470Z,81.05
2023-04-14T01:11:48.443Z,81.15
2023-04-14T01:12:48.444Z,81.35
2023-04-14T01:13:48.435Z,81.46
2023-04-14T01:14:48.468Z,81.56
2023-04-14T01:15:48.420Z,81.67
2023-04-14T01:16:48.401Z,81.77
2023-04-14T01:17:48.504Z,81.98
2023-04-14T01:18:48.377Z,82.08
2023-04-14T01:19:48.387Z,82.29
2023-04-14T01:20:48.374Z,82.39
2023-04-14T01:21:48.344Z,82.39
2023-04-14T01:22:48.395Z,82.29
2023-04-14T01:23:48.326Z,82.29
2023-04-14T01:24:48.354Z,82.43
2023-04-14T01:25:48.323Z,82.53
2023-04-14T01:26:51.396Z,82.64
2023-04-14T01:27:48.349Z,82.74
2023-04-14T01:28:48.273Z,82.88
2023-04-14T01:29:48.305Z,82.98
2023-04-14T01:30:48.342Z,83.19
2023-04-14T01:31:48.404Z,83.40
2023-04-14T01:32:48.293Z,83.50
2023-04-14T01:33:48.225Z,83.71
2023-04-14T01:34:48.270Z,83.81
2023-04-14T01:35:48.193Z,84.12
2023-04-14T01:36:48.185Z,84.39
2023-04-14T01:37:48.295Z,84.39
2023-04-14T01:38:48.170Z,84.50
2023-04-14T01:39:48.148Z,84.50
2023-04-14T01:40:48.217Z,84.39
2023-04-14T01:41:48.128Z,84.39
2023-04-14T01:42:48.126Z,84.36
2023-04-14T01:43:48.116Z,84.25
2023-04-14T01:44:48.134Z,84.05
2023-04-14T01:45:48.110Z,83.63
2023-04-14T01:46:48.104Z,83.25
2023-04-14T01:47:48.112Z,83.05
2023-04-14T01:48:48.063Z,82.84
2023-04-14T01:49:48.109Z,82.74
2023-04-14T01:50:48.120Z,82.74
2023-04-14T01:51:48.084Z,82.78
2023-04-14T01:52:48.097Z,82.78
2023-04-14T01:53:48.002Z,82.78
2023-04-14T01:54:48.038Z,82.88
2023-04-14T01:55:48.030Z,82.98
2023-04-14T01:56:47.975Z,83.40
2023-04-14T01:57:47.963Z,83.71
2023-04-14T01:58:48.009Z,83.91
2023-04-14T01:59:47.965Z,84.12
2023-04-14T02:00:47.965Z,84.33
2023-04-14T02:01:47.945Z,84.53
2023-04-14T02:02:47.982Z,84.60
2023-04-14T02:03:47.989Z,84.70
2023-04-14T02:04:47.884Z,84.70
2023-04-14T02:05:47.906Z,84.70
2023-04-14T02:06:47.911Z,84.50
2023-04-14T02:07:49.423Z,84.29
2023-04-14T02:08:47.862Z,83.98
2023-04-14T02:09:47.833Z,83.71
2023-04-14T02:10:47.824Z,83.61
2023-04-14T02:11:47.821Z,83.61
2023-04-14T02:12:47.834Z,83.71
2023-04-14T02:13:47.799Z,83.91
2023-04-14T02:14:47.877Z,84.01
2023-04-14T02:15:47.764Z,84.16
2023-04-14T02:16:47.784Z,84.37
2023-04-14T02:17:47.802Z,84.58
2023-04-14T02:18:47.760Z,84.68
2023-04-14T02:19:47.748Z,84.78
2023-04-14T02:20:47.717Z,84.88
2023-04-14T02:21:47.698Z,84.99
2023-04-14T02:22:47.695Z,85.09
2023-04-14T02:23:47.713Z,85.09
2023-04-14T02:24:47.671Z,85.19
2023-04-14T02:25:55.392Z,85.30
2023-04-14T02:26:47.647Z,85.30
2023-04-14T02:27:47.648Z,85.30
2023-04-14T02:28:47.736Z,85.30
2023-04-14T02:29:47.614Z,85.61
2023-04-14T02:30:47.714Z,85.82
2023-04-14T02:31:47.598Z,85.92
2023-04-14T02:32:47.655Z,85.92
2023-04-14T02:33:47.572Z,85.99
2023-04-14T02:34:47.571Z,85.99
2023-04-14T02:35:47.562Z,85.99
2023-04-14T02:36:47.575Z,85.78
2023-04-14T02:37:47.529Z,85.71
2023-04-14T02:38:47.524Z,85.61
2023-04-14T02:39:47.505Z,85.61
2023-04-14T02:40:47.524Z,85.50
2023-04-14T02:41:47.600Z,85.50
2023-04-14T02:42:47.517Z,85.40
2023-04-14T02:43:47.473Z,85.40
2023-04-14T02:44:47.463Z,85.30
2023-04-14T02:45:47.535Z,85.30
2023-04-14T02:46:47.437Z,85.30
2023-04-14T02:47:47.454Z,85.40
2023-04-14T02:48:47.470Z,85.50
2023-04-14T02:49:47.416Z,85.61
2023-04-14T02:50:47.397Z,85.57
2023-04-14T02:51:47.415Z,85.57
2023-04-14T02:52:47.384Z,85.47
2023-04-14T02:53:47.393Z,85.36
2023-04-14T02:54:47.355Z,85.30
2023-04-14T02:55:47.340Z,85.30
2023-04-14T02:56:47.390Z,85.30
2023-04-14T02:57:47.321Z,85.50
2023-04-14T02:58:47.334Z,85.78
2023-04-14T02:59:47.299Z,85.88
2023-04-14T03:00:47.325Z,85.88
2023-04-14T03:01:47.374Z,85.99
2023-04-14T03:02:47.605Z,86.09
2023-04-14T03:03:47.274Z,86.09
2023-04-14T03:04:47.255Z,85.99
2023-04-14T03:05:47.235Z,85.99
2023-04-14T03:06:47.278Z,85.99
2023-04-14T03:07:47.269Z,86.09
2023-04-14T03:08:47.210Z,86.19
2023-04-14T03:09:47.244Z,86.19
2023-04-14T03:10:47.189Z,86.19
2023-04-14T03:11:47.180Z,86.15
2023-04-14T03:12:47.212Z,86.15
2023-04-14T03:13:47.160Z,86.15
2023-04-14T03:14:47.179Z,86.25
2023-04-14T03:15:47.315Z,86.36
2023-04-14T03:16:47.124Z,86.57
2023-04-14T03:17:47.172Z,86.46
2023-04-14T03:18:47.101Z,86.52
2023-04-14T03:19:47.097Z,86.32
2023-04-14T03:20:47.188Z,86.01
2023-04-14T03:21:47.106Z,86.01
2023-04-14T03:22:47.062Z,86.01
2023-04-14T03:23:47.062Z,86.11
2023-04-14T03:24:47.048Z,86.15
2023-04-14T03:25:47.036Z,86.11
2023-04-14T03:26:47.030Z,86.11
2023-04-14T03:27:47.034Z,86.01
2023-04-14T03:28:46.994Z,85.80
2023-04-14T03:29:46.992Z,85.60
2023-04-14T03:30:46.970Z,85.32
2023-04-14T03:31:47.055Z,85.11
2023-04-14T03:32:47.060Z,85.02
2023-04-14T03:33:46.960Z,85.02
2023-04-14T03:34:46.971Z,85.02
2023-04-14T03:35:46.950Z,85.16
2023-04-14T03:36:46.915Z,85.26
2023-04-14T03:37:46.957Z,85.36
2023-04-14T03:38:46.886Z,85.47
2023-04-14T03:39:46.974Z,85.57
2023-04-14T03:40:46.864Z,85.78
2023-04-14T03:41:46.856Z,85.99
2023-04-14T03:42:46.861Z,86.19
2023-04-14T03:43:46.862Z,86.40
2023-04-14T03:44:46.828Z,86.60
2023-04-14T03:45:46.843Z,86.71
2023-04-14T03:46:46.838Z,86.88
2023-04-14T03:47:46.891Z,86.98
2023-04-14T03:48:46.781Z,87.08
2023-04-14T03:49:46.881Z,87.18
2023-04-14T03:50:46.788Z,87.29
2023-04-14T03:51:46.755Z,87.39
2023-04-14T03:52:46.736Z,87.35
2023-04-14T03:53:46.813Z,87.35
2023-04-14T03:54:46.715Z,87.15
2023-04-14T03:55:46.721Z,86.88
2023-04-14T03:56:46.696Z,86.67
2023-04-14T03:57:46.697Z,86.57
2023-04-14T03:58:46.710Z,86.77
2023-04-14T03:59:46.678Z,86.88
2023-04-14T04:00:46.649Z,86.88
2023-04-14T04:01:46.726Z,87.18
2023-04-14T04:02:46.864Z,87.60
2023-04-14T04:03:46.965Z,88.01
2023-04-14T04:04:46.804Z,88.07
2023-04-14T04:05:46.605Z,88.18
2023-04-14T04:06:46.591Z,88.28
2023-04-14T04:07:46.591Z,88.90
2023-04-14T04:08:46.562Z,89.28
2023-04-14T04:09:46.593Z,89.38
2023-04-14T04:10:46.548Z,89.07
2023-04-14T04:11:46.588Z,88.86
2023-04-14T04:12:46.525Z,88.45
2023-04-14T04:13:46.519Z,88.10
2023-04-14T04:14:46.506Z,87.79
2023-04-14T04:15:46.498Z,87.17
2023-04-14T04:16:46.517Z,86.76
2023-04-14T04:17:46.639Z,86.65
2023-04-14T04:18:46.469Z,86.55
2023-04-14T04:19:46.525Z,86.44
2023-04-14T04:20:46.472Z,86.44
2023-04-14T04:21:46.437Z,86.44
2023-04-14T04:22:46.420Z,86.44
2023-04-14T04:23:46.412Z,86.44
2023-04-14T04:24:46.402Z,86.24
2023-04-14T04:25:46.536Z,86.24
2023-04-14T04:26:46.373Z,86.34
2023-04-14T04:27:46.364Z,86.34
2023-04-14T04:28:46.346Z,86.03
2023-04-14T04:29:46.379Z,85.83
2023-04-14T04:30:46.409Z,85.72
2023-04-14T04:31:46.345Z,85.62
2023-04-14T04:32:46.325Z,85.62
2023-04-14T04:33:46.317Z,85.62
2023-04-14T04:34:46.309Z,85.83
2023-04-14T04:35:46.533Z,85.83
2023-04-14T04:36:46.261Z,85.93
2023-04-14T04:37:46.275Z,85.83
2023-04-14T04:38:46.244Z,85.83
2023-04-14T04:39:46.243Z,85.83
2023-04-14T04:40:46.389Z,85.83
2023-04-14T04:41:46.216Z,85.62
2023-04-14T04:42:46.251Z,85.41
2023-04-14T04:43:46.198Z,85.31
2023-04-14T04:44:46.232Z,85.41
2023-04-14T04:45:47.070Z,85.41
2023-04-14T04:46:46.182Z,85.41
2023-04-14T04:47:46.176Z,85.41
2023-04-14T04:48:46.137Z,85.52
2023-04-14T04:49:46.133Z,85.83
2023-04-14T04:50:46.220Z,86.03
2023-04-14T04:51:46.109Z,86.13
2023-04-14T04:52:46.097Z,86.13
2023-04-14T04:53:46.098Z,86.24
2023-04-14T04:54:46.085Z,86.34
2023-04-14T04:55:46.126Z,86.30
2023-04-14T04:56:46.051Z,86.30
2023-04-14T04:57:46.087Z,86.10
2023-04-14T04:58:46.026Z,85.78
2023-04-14T04:59:46.021Z,85.47
2023-04-14T05:00:46.014Z,85.27
2023-04-14T05:01:46.134Z,85.17
2023-04-14T05:02:46.058Z,85.06
2023-04-14T05:03:45.982Z,85.27
2023-04-14T05:04:46.021Z,85.58
2023-04-14T05:05:45.963Z,85.78
2023-04-14T05:06:45.946Z,85.99
2023-04-14T05:07:45.964Z,86.20
2023-04-14T05:08:45.924Z,86.26
2023-04-14T05:09:45.928Z,86.78
2023-04-14T05:10:45.907Z,86.98
2023-04-14T05:11:45.946Z,86.78
2023-04-14T05:12:45.965Z,86.36
2023-04-14T05:13:45.878Z,85.75
2023-04-14T05:14:45.859Z,85.33
2023-04-14T05:15:45.896Z,85.17
2023-04-14T05:16:45.883Z,85.17
2023-04-14T05:17:45.868Z,85.06
2023-04-14T05:18:45.826Z,85.27
2023-04-14T05:19:45.818Z,85.68
2023-04-14T05:20:45.798Z,86.20
2023-04-14T05:21:45.796Z,86.47
2023-04-14T05:22:45.838Z,86.57
2023-04-14T05:23:45.786Z,86.98
2023-04-14T05:24:45.756Z,86.98
2023-04-14T05:25:47.554Z,86.88
2023-04-14T05:27:01.721Z,86.68
2023-04-14T05:27:46.802Z,86.36
2023-04-14T05:28:45.727Z,86.05
2023-04-14T05:29:45.766Z,85.75
2023-04-14T05:30:45.755Z,85.33
2023-04-14T05:31:45.880Z,84.86
2023-04-14T05:32:45.708Z,84.65
2023-04-14T05:33:45.732Z,84.65
2023-04-14T05:34:45.652Z,84.69
2023-04-14T05:35:45.652Z,84.89
2023-04-14T05:36:45.756Z,85.10
2023-04-14T05:37:45.655Z,85.31
2023-04-14T05:38:45.618Z,85.52
2023-04-14T05:39:45.606Z,85.52
2023-04-14T05:40:45.589Z,85.72
2023-04-14T05:41:45.741Z,85.72
2023-04-14T05:42:45.590Z,85.72
2023-04-14T05:43:45.565Z,85.72
2023-04-14T05:44:45.551Z,85.72
2023-04-14T05:45:45.541Z,85.72
2023-04-14T05:46:45.563Z,85.72
2023-04-14T05:47:46.933Z,85.83
2023-04-14T05:48:45.506Z,85.83
2023-04-14T05:49:45.498Z,85.93
2023-04-14T05:50:45.478Z,86.03
2023-04-14T05:51:46.036Z,86.03
2023-04-14T05:52:45.490Z,86.13
2023-04-14T05:53:45.457Z,86.13
2023-04-14T05:54:45.456Z,86.18
2023-04-14T05:55:45.431Z,86.28
2023-04-14T05:56:45.422Z,86.34
2023-04-14T05:57:45.419Z,86.44
2023-04-14T05:58:45.433Z,86.55
2023-04-14T05:59:45.396Z,86.76
2023-04-14T06:00:45.416Z,87.07
2023-04-14T06:01:45.476Z,87.58
2023-04-14T06:02:45.562Z,87.65
2023-04-14T06:03:45.628Z,87.74
2023-04-14T06:04:45.558Z,87.65
2023-04-14T06:05:45.327Z,87.19
2023-04-14T06:06:45.323Z,86.98
2023-04-14T06:07:45.307Z,86.68
2023-04-14T06:08:45.325Z,86.47
2023-04-14T06:09:45.315Z,86.36
2023-04-14T06:10:45.278Z,86.26
2023-04-14T06:11:45.269Z,86.16
2023-04-14T06:12:45.268Z,86.16
2023-04-14T06:13:45.251Z,86.26
2023-04-14T06:14:45.242Z,86.32
2023-04-14T06:15:45.225Z,85.60
2023-04-14T06:16:45.267Z,84.92
2023-04-14T06:17:45.239Z,84.72
2023-04-14T06:18:45.206Z,84.41
2023-04-14T06:19:45.219Z,84.30
2023-04-14T06:20:45.170Z,84.09
2023-04-14T06:21:45.192Z,84.09
2023-04-14T06:22:45.140Z,83.89
2023-04-14T06:23:45.135Z,83.68
2023-04-14T06:24:45.122Z,83.58
2023-04-14T06:25:45.151Z,83.37
2023-04-14T06:26:45.099Z,82.92
2023-04-14T06:27:45.109Z,82.82
2023-04-14T06:28:45.088Z,82.61
2023-04-14T06:29:45.076Z,82.61
2023-04-14T06:30:45.055Z,82.71
2023-04-14T06:31:45.151Z,82.71
2023-04-14T06:32:45.045Z,82.61
2023-04-14T06:33:45.145Z,82.61
2023-04-14T06:34:45.046Z,82.51
2023-04-14T06:35:45.010Z,82.47
2023-04-14T06:36:45.097Z,82.16
2023-04-14T06:37:44.986Z,81.96
2023-04-14T06:38:45.005Z,81.96
2023-04-14T06:39:45.557Z,82.16
2023-04-14T06:40:44.983Z,82.16
2023-04-14T06:41:44.944Z,82.26
2023-04-14T06:42:44.937Z,82.23
2023-04-14T06:43:44.924Z,82.12
2023-04-14T06:44:44.908Z,82.02
2023-04-14T06:45:45.083Z,81.92
2023-04-14T06:46:46.595Z,81.81
2023-04-14T06:47:44.942Z,81.51
2023-04-14T06:48:44.867Z,81.40
2023-04-14T06:49:44.859Z,81.26
2023-04-14T06:50:44.861Z,81.26
2023-04-14T06:51:44.844Z,81.05
2023-04-14T06:52:44.818Z,81.05
2023-04-14T06:53:46.525Z,81.05
2023-04-14T06:54:44.815Z,81.16
2023-04-14T06:55:44.799Z,80.91
2023-04-14T06:56:44.783Z,81.12
2023-04-14T06:57:44.772Z,81.02
2023-04-14T06:58:44.859Z,80.91
2023-04-14T06:59:44.803Z,80.88
2023-04-14T07:00:44.737Z,81.09
2023-04-14T07:01:44.824Z,80.47
2023-04-14T07:02:44.841Z,80.33
2023-04-14T07:03:46.444Z,79.91
2023-04-14T07:04:44.813Z,79.40
2023-04-14T07:05:44.690Z,79.19
2023-04-14T07:06:44.673Z,78.78
2023-04-14T07:07:44.892Z,78.37
2023-04-14T07:08:44.649Z,78.33
2023-04-14T07:09:44.729Z,78.54
2023-04-14T07:10:44.740Z,78.13
2023-04-14T07:11:44.648Z,78.03
2023-04-14T07:12:44.624Z,78.03
2023-04-14T07:13:44.613Z,77.82
2023-04-14T07:14:44.603Z,77.82
2023-04-14T07:15:44.732Z,78.13
2023-04-14T07:16:44.574Z,78.33
2023-04-14T07:17:44.590Z,77.99
2023-04-14T07:18:44.594Z,77.99
2023-04-14T07:19:44.536Z,77.65
2023-04-14T07:20:44.584Z,77.55
2023-04-14T07:21:49.593Z,77.13
2023-04-14T07:22:44.501Z,76.21
2023-04-14T07:23:44.503Z,75.70
2023-04-14T07:24:44.630Z,75.49
2023-04-14T07:25:44.462Z,75.59
2023-04-14T07:26:44.570Z,75.70
2023-04-14T07:27:52.992Z,75.70
2023-04-14T07:28:45.434Z,75.90
2023-04-14T07:29:44.442Z,75.80
2023-04-14T07:30:44.514Z,75.70
2023-04-14T07:31:44.512Z,75.59
2023-04-14T07:32:44.508Z,75.59
2023-04-14T07:33:44.468Z,75.59
2023-04-14T07:34:44.515Z,75.29
2023-04-14T07:35:54.752Z,75.18
2023-04-14T07:36:45.346Z,75.08
2023-04-14T07:37:44.432Z,74.77
2023-04-14T07:38:44.347Z,74.77
2023-04-14T07:39:44.547Z,74.94
2023-04-14T07:40:44.313Z,74.94
2023-04-14T07:41:44.296Z,74.94
2023-04-14T07:42:44.318Z,74.84
2023-04-14T07:43:44.279Z,74.32
2023-04-14T07:44:44.304Z,74.32
2023-04-14T07:45:44.325Z,74.43
2023-04-14T07:46:44.432Z,74.70
2023-04-14T07:47:44.280Z,74.49
2023-04-14T07:48:44.665Z,74.29
2023-04-14T07:49:44.230Z,73.68
2023-04-14T07:50:44.218Z,73.36
2023-04-14T07:51:44.181Z,73.85
2023-04-14T07:52:44.182Z,73.85
2023-04-14T07:53:44.212Z,73.44
2023-04-14T07:54:44.245Z,73.02
2023-04-14T07:55:44.152Z,72.51
2023-04-14T07:56:44.141Z,72.51
2023-04-14T07:57:44.166Z,72.61
2023-04-14T07:58:44.125Z,72.78
2023-04-14T07:59:44.132Z,72.78
2023-04-14T08:00:44.113Z,72.78
2023-04-14T08:01:44.206Z,72.58
2023-04-14T08:02:44.260Z,71.97
2023-04-14T08:03:45.515Z,71.35
2023-04-14T08:04:44.056Z,71.35
2023-04-14T08:05:44.149Z,71.45
2023-04-14T08:06:45.734Z,71.42
2023-04-14T08:07:44.008Z,71.62
2023-04-14T08:08:44.007Z,71.42
2023-04-14T08:09:43.992Z,70.50
2023-04-14T08:10:43.985Z,69.98
2023-04-14T08:11:44.046Z,69.89
2023-04-14T08:12:43.972Z,69.95
2023-04-14T08:13:43.960Z,69.95
2023-04-14T08:14:43.962Z,70.16
2023-04-14T08:15:43.997Z,69.95
2023-04-14T08:16:44.057Z,69.03
2023-04-14T08:17:44.133Z,69.10
2023-04-14T08:18:43.926Z,69.10
2023-04-14T08:19:43.964Z,69.10
2023-04-14T08:20:43.875Z,68.90
2023-04-14T08:21:43.928Z,68.49
2023-04-14T08:22:43.862Z,68.49
2023-04-14T08:23:43.845Z,68.38
2023-04-14T08:24:43.832Z,68.49
2023-04-14T08:25:43.819Z,68.49
2023-04-14T08:26:43.811Z,68.28
2023-04-14T08:27:43.846Z,68.05
2023-04-14T08:28:43.800Z,68.25
2023-04-14T08:29:43.773Z,68.05
2023-04-14T08:30:43.765Z,68.05
2023-04-14T08:31:43.810Z,68.01
2023-04-14T08:32:43.804Z,68.12
2023-04-14T08:33:43.796Z,66.78
2023-04-14T08:35:35.771Z,66.17
2023-04-14T08:35:44.717Z,65.56
2023-04-14T08:36:43.699Z,65.46
2023-04-14T08:37:43.686Z,65.87
2023-04-14T08:38:43.692Z,65.63
2023-04-14T08:39:43.705Z,66.55
2023-04-14T08:40:43.684Z,66.25
2023-04-14T08:41:43.692Z,65.53
2023-04-14T08:42:43.695Z,65.63
2023-04-14T08:43:43.625Z,65.73
2023-04-14T08:44:43.619Z,66.45
2023-04-14T08:45:45.355Z,66.14
2023-04-14T08:46:43.713Z,65.63
2023-04-14T08:47:43.690Z,65.63
2023-04-14T08:48:43.578Z,65.60
2023-04-14T08:49:43.564Z,65.50
2023-04-14T08:50:43.625Z,65.30
2023-04-14T08:51:43.586Z,65.30
2023-04-14T08:52:43.543Z,64.89
2023-04-14T08:53:43.598Z,64.17
2023-04-14T08:54:43.516Z,63.45
2023-04-14T08:55:43.580Z,63.25
2023-04-14T08:56:43.499Z,63.25
2023-04-14T08:57:43.477Z,63.15
2023-04-14T08:58:43.466Z,62.71
2023-04-14T08:59:43.512Z,62.20
2023-04-14T09:00:43.533Z,61.99
2023-04-14T09:01:43.477Z,62.30
2023-04-14T09:02:43.589Z,62.20
2023-04-14T09:03:43.607Z,62.51
2023-04-14T09:04:43.760Z,62.20
2023-04-14T09:05:43.478Z,62.10
2023-04-14T09:06:43.450Z,61.99
2023-04-14T09:07:43.381Z,61.18
2023-04-14T09:08:43.367Z,60.94
2023-04-14T09:09:43.358Z,60.53
2023-04-14T09:10:43.431Z,60.13
2023-04-14T09:11:43.334Z,59.82
2023-04-14T09:12:43.334Z,59.92
2023-04-14T09:13:43.325Z,59.72
2023-04-14T09:14:50.940Z,59.92
2023-04-14T09:15:43.292Z,60.13
2023-04-14T09:16:43.326Z,60.30
2023-04-14T09:17:43.331Z,60.30
2023-04-14T09:18:43.277Z,60.51
2023-04-14T09:20:36.682Z,60.61
2023-04-14T09:20:44.632Z,59.69
2023-04-14T09:21:51.397Z,59.49
2023-04-14T09:22:44.232Z,59.39
2023-04-14T09:23:43.269Z,59.26
2023-04-14T09:24:43.213Z,57.93
2023-04-14T09:25:43.179Z,57.52
2023-04-14T09:26:43.197Z,58.03
2023-04-14T09:27:43.175Z,57.83
2023-04-14T09:28:43.159Z,58.23
2023-04-14T09:29:43.200Z,56.50
2023-04-14T09:30:43.318Z,56.40
2023-04-14T09:31:43.148Z,56.60
2023-04-14T09:32:43.133Z,56.71
2023-04-14T09:33:43.168Z,57.32
2023-04-14T09:34:43.101Z,57.42
2023-04-14T09:35:43.131Z,57.32
2023-04-14T09:36:43.095Z,57.19
2023-04-14T09:37:43.097Z,57.19
2023-04-14T09:38:43.045Z,57.09
2023-04-14T09:39:43.043Z,56.88
2023-04-14T09:40:43.145Z,56.99
2023-04-14T09:41:43.118Z,57.19
2023-04-14T09:42:43.077Z,56.37
2023-04-14T09:43:43.023Z,56.45
2023-04-14T09:44:42.984Z,56.45
2023-04-14T09:45:42.995Z,56.55
2023-04-14T09:46:43.060Z,55.84
2023-04-14T09:47:42.991Z,56.24
2023-04-14T09:48:42.938Z,56.35
2023-04-14T09:49:42.934Z,56.45
2023-04-14T09:50:42.942Z,55.84
2023-04-14T09:51:42.898Z,55.63
2023-04-14T09:52:42.970Z,55.74
2023-04-14T09:53:42.941Z,55.94
2023-04-14T09:54:42.913Z,56.15
2023-04-14T09:55:42.893Z,56.24
2023-04-14T09:56:42.862Z,56.55
2023-04-14T09:57:42.969Z,55.84
2023-04-14T09:58:42.993Z,55.43
2023-04-14T09:59:42.949Z,55.87
2023-04-14T10:00:42.972Z,56.17
2023-04-14T10:01:42.936Z,56.68
2023-04-14T10:02:42.997Z,56.58
2023-04-14T10:03:42.873Z,56.58
2023-04-14T10:04:42.812Z,56.27
2023-04-14T10:05:42.776Z,56.27
2023-04-14T10:06:42.782Z,56.58
2023-04-14T10:07:42.736Z,57.09
2023-04-14T10:08:42.733Z,57.29
2023-04-14T10:09:42.708Z,56.78
2023-04-14T10:10:42.757Z,56.58
2023-04-14T10:11:42.729Z,56.37
2023-04-14T10:12:42.683Z,56.17
2023-04-14T10:13:42.664Z,56.58
2023-04-14T10:14:42.749Z,56.68
2023-04-14T10:15:42.728Z,56.68
2023-04-14T10:16:42.651Z,56.78
2023-04-14T10:17:42.675Z,56.68
2023-04-14T10:18:42.625Z,56.88
2023-04-14T10:19:42.721Z,57.50
2023-04-14T10:20:44.690Z,56.48
2023-04-14T10:21:42.607Z,56.37
2023-04-14T10:22:42.579Z,56.27
2023-04-14T10:23:42.591Z,55.97
2023-04-14T10:24:44.824Z,55.87
2023-04-14T10:25:42.539Z,55.97
2023-04-14T10:26:42.534Z,55.97
2023-04-14T10:27:42.525Z,56.55
2023-04-14T10:28:42.512Z,55.63
2023-04-14T10:29:42.504Z,55.94
2023-04-14T10:30:42.547Z,56.15
2023-04-14T10:31:42.650Z,56.15
2023-04-14T10:32:42.505Z,55.81
2023-04-14T10:33:42.452Z,56.32
2023-04-14T10:34:42.848Z,55.91
2023-04-14T10:35:42.505Z,55.68
2023-04-14T10:36:42.465Z,55.48
2023-04-14T10:37:42.442Z,54.87
2023-04-14T10:38:42.438Z,54.44
2023-04-14T10:39:42.385Z,54.03
2023-04-14T10:40:42.386Z,53.42
2023-04-14T10:41:42.376Z,52.81
2023-04-14T10:42:42.403Z,53.11
2023-04-14T10:43:42.343Z,53.11
2023-04-14T10:44:42.347Z,53.42
2023-04-14T10:45:42.357Z,53.02
2023-04-14T10:46:42.408Z,53.02
2023-04-14T10:47:42.343Z,53.22
2023-04-14T10:48:42.402Z,53.11
2023-04-14T10:49:42.290Z,53.32
2023-04-14T10:50:42.274Z,53.39
2023-04-14T10:51:42.375Z,52.98
2023-04-14T10:52:42.290Z,52.68
2023-04-14T10:53:42.236Z,52.48
2023-04-14T10:54:42.235Z,52.56
2023-04-14T10:55:51.741Z,51.75
2023-04-14T10:56:43.204Z,50.52
2023-04-14T10:57:42.246Z,50.32
2023-04-14T10:58:42.294Z,50.83
2023-04-14T10:59:42.179Z,50.83
2023-04-14T11:00:42.242Z,50.93
2023-04-14T11:01:42.204Z,50.93
2023-04-14T11:02:42.400Z,50.32
2023-04-14T11:03:42.380Z,50.73
2023-04-14T11:04:42.128Z,50.12
2023-04-14T11:05:43.884Z,50.32
2023-04-14T11:06:42.153Z,50.29
2023-04-14T11:07:42.104Z,49.99
2023-04-14T11:08:42.093Z,50.09
2023-04-14T11:09:42.088Z,50.20
2023-04-14T11:10:42.151Z,49.99
2023-04-14T11:11:42.073Z,49.89
2023-04-14T11:12:42.036Z,49.48
2023-04-14T11:13:42.031Z,50.70
2023-04-14T11:14:42.030Z,51.09
2023-04-14T11:15:41.995Z,50.68
2023-04-14T11:16:47.568Z,50.68
2023-04-14T11:17:43.068Z,49.97
2023-04-14T11:18:43.936Z,49.97
2023-04-14T11:19:41.984Z,49.56
2023-04-14T11:20:41.957Z,50.07
2023-04-14T11:21:41.936Z,49.87
2023-04-14T11:22:41.940Z,49.76
2023-04-14T11:23:41.911Z,50.37
2023-04-14T11:24:41.957Z,50.07
2023-04-14T11:25:41.890Z,50.04
2023-04-14T11:26:41.888Z,49.74
2023-04-14T11:27:42.227Z,48.63
2023-04-14T11:28:41.883Z,48.63
2023-04-14T11:29:43.772Z,48.63
2023-04-14T11:30:41.889Z,49.23
2023-04-14T11:31:41.875Z,49.21
2023-04-14T11:32:41.902Z,48.71
2023-04-14T11:33:42.227Z,49.01
2023-04-14T11:34:41.836Z,48.10
2023-04-14T11:35:41.791Z,47.08
2023-04-14T11:36:41.788Z,47.08
2023-04-14T11:37:41.786Z,47.28
2023-04-14T11:38:41.962Z,47.59
2023-04-14T11:39:41.745Z,47.38
2023-04-14T11:40:41.735Z,46.98
2023-04-14T11:41:41.731Z,47.10
2023-04-14T11:42:41.706Z,47.00
2023-04-14T11:43:41.708Z,47.30
2023-04-14T11:44:41.733Z,47.00
2023-04-14T11:45:41.731Z,47.10
2023-04-14T11:46:41.931Z,47.10
2023-04-14T11:47:41.712Z,47.10
2023-04-14T11:48:41.701Z,47.81
2023-04-14T11:49:41.662Z,48.42
2023-04-14T11:50:41.646Z,48.32
2023-04-14T11:51:41.664Z,48.71
2023-04-14T11:52:41.635Z,48.10
2023-04-14T11:53:41.598Z,46.88
2023-04-14T11:54:41.697Z,46.55
2023-04-14T11:55:41.586Z,46.35
2023-04-14T11:56:41.603Z,45.94
2023-04-14T11:57:41.557Z,46.04
2023-04-14T11:58:41.568Z,45.82
2023-04-14T11:59:41.533Z,46.12
2023-04-14T12:00:41.544Z,45.82
2023-04-14T12:01:41.569Z,45.31
2023-04-14T12:02:41.625Z,45.21
2023-04-14T12:03:41.674Z,45.92
2023-04-14T12:04:41.756Z,46.02
2023-04-14T12:05:41.539Z,45.31
2023-04-14T12:06:41.487Z,43.99
2023-04-14T12:07:41.448Z,44.60
2023-04-14T12:08:41.434Z,45.03
2023-04-14T12:09:41.440Z,45.43
2023-04-14T12:10:44.670Z,45.84
2023-04-14T12:11:41.432Z,46.25
2023-04-14T12:12:41.413Z,46.43
2023-04-14T12:13:41.413Z,46.02
2023-04-14T12:14:41.392Z,44.68
2023-04-14T12:15:41.505Z,44.68
2023-04-14T12:16:41.407Z,44.50
2023-04-14T12:17:41.472Z,44.20
2023-04-14T12:18:41.329Z,44.20
2023-04-14T12:19:41.329Z,44.60
2023-04-14T12:20:41.374Z,44.20
2023-04-14T12:21:41.377Z,44.30
2023-04-14T12:22:41.296Z,44.30
2023-04-14T12:23:41.478Z,44.40
2023-04-14T12:24:41.270Z,44.81
2023-04-14T12:25:41.250Z,45.39
2023-04-14T12:26:41.249Z,45.29
2023-04-14T12:27:41.256Z,45.59
2023-04-14T12:28:41.261Z,44.99
2023-04-14T12:29:41.220Z,44.99
2023-04-14T12:30:41.198Z,44.38
2023-04-14T12:31:41.248Z,44.38
2023-04-14T12:32:41.227Z,44.68
2023-04-14T12:33:41.234Z,44.38
2023-04-14T12:34:41.205Z,43.89
2023-04-14T12:35:41.223Z,44.10
2023-04-14T12:36:50.117Z,44.81
2023-04-14T12:37:42.171Z,45.31
2023-04-14T12:38:41.190Z,45.21
2023-04-14T12:39:41.102Z,45.42
2023-04-14T12:40:41.094Z,45.11
2023-04-14T12:41:41.100Z,45.42
2023-04-14T12:42:41.088Z,45.62
2023-04-14T12:43:41.112Z,45.82
2023-04-14T12:44:41.059Z,45.92
2023-04-14T12:45:41.052Z,45.62
2023-04-14T12:46:41.044Z,45.31
2023-04-14T12:47:41.062Z,45.31
2023-04-14T12:48:41.069Z,45.31
2023-04-14T12:49:42.163Z,45.31
2023-04-14T12:50:40.982Z,45.72
2023-04-14T12:51:40.974Z,45.82
2023-04-14T12:52:41.019Z,45.42